Terminal Aerodrome Forecast
Issued by NWS

Home | Current Version | Previous Version | Text Only | Print | Product List | Glossary On
Versions: 1 2 3 4 5 6 7 8 9 10 11 12 13 14 15 16 17 18 19 20
000
FTAK31 PAJN 221133
TAFASI
TAF
PASI 221133Z 2212/2312 19011KT P6SM VCSH SCT025 OVC035
      WS015/17030KT
      TEMPO 2212/2214 -SHRA BKN025 OVC035
     FM221400 14005KT P6SM -SHRA BKN018 OVC025
     FM221900 22007KT P6SM -SHRA BKN025 OVC035
     FM230600 15004KT P6SM -SHRA SCT007 OVC015=

USA.gov is the U.S. government's official web portal to all federal, state and local government web resources and services.